sensor_id;sensor_type;location;lat;lon;timestamp;pressure;altitude;pressure_sealevel;temperature;humidity
53023;BME280;38913;44.338;11.206;2023-07-20T00:01:27;98898.19;;;23.17;nan
53023;BME280;38913;44.338;11.206;2023-07-20T00:03:52;98945.84;;;23.29;nan
53023;BME280;38913;44.338;11.206;2023-07-20T00:06:21;98904.66;;;23.16;nan
53023;BME280;38913;44.338;11.206;2023-07-20T00:08:47;98972.16;;;22.97;nan
53023;BME280;38913;44.338;11.206;2023-07-20T00:11:13;99035.56;;;23.63;nan
53023;BME280;38913;44.338;11.206;2023-07-20T00:13:39;99030.72;;;23.95;nan
53023;BME280;38913;44.338;11.206;2023-07-20T00:16:05;99063.63;;;23.36;nan
53023;BME280;38913;44.338;11.206;2023-07-20T00:18:30;98938.69;;;22.85;nan
53023;BME280;38913;44.338;11.206;2023-07-20T00:20:55;99109.13;;;24.54;nan
53023;BME280;38913;44.338;11.206;2023-07-20T00:23:21;99106.94;;;24.77;nan
53023;BME280;38913;44.338;11.206;2023-07-20T00:25:48;99085.94;;;23.93;nan
53023;BME280;38913;44.338;11.206;2023-07-20T00:28:13;98961.69;;;23.22;nan
53023;BME280;38913;44.338;11.206;2023-07-20T00:33:04;98937.66;;;23.16;nan
53023;BME280;38913;44.338;11.206;2023-07-20T00:35:30;98931.03;;;23.23;nan
53023;BME280;38913;44.338;11.206;2023-07-20T00:37:55;98974.91;;;23.44;nan
53023;BME280;38913;44.338;11.206;2023-07-20T00:40:21;98938.63;;;23.38;nan
53023;BME280;38913;44.338;11.206;2023-07-20T00:42:46;98820.63;;;23.06;nan
53023;BME280;38913;44.338;11.206;2023-07-20T00:45:12;98938.50;;;22.99;nan
53023;BME280;38913;44.338;11.206;2023-07-20T00:50:02;98901.03;;;21.79;nan
53023;BME280;38913;44.338;11.206;2023-07-20T00:52:29;98806.06;;;21.63;nan
53023;BME280;38913;44.338;11.206;2023-07-20T00:54:55;98961.88;;;23.08;nan
53023;BME280;38913;44.338;11.206;2023-07-20T00:57:23;98943.09;;;22.99;nan
53023;BME280;38913;44.338;11.206;2023-07-20T00:59:49;99018.72;;;23.45;nan
53023;BME280;38913;44.338;11.206;2023-07-20T01:02:14;98889.31;;;22.60;nan
53023;BME280;38913;44.338;11.206;2023-07-20T01:04:40;98995.84;;;22.95;nan
53023;BME280;38913;44.338;11.206;2023-07-20T01:07:36;99000.72;;;23.19;nan
53023;BME280;38913;44.338;11.206;2023-07-20T01:12:52;98954.63;;;22.55;nan
53023;BME280;38913;44.338;11.206;2023-07-20T01:15:18;98945.22;;;21.59;nan
53023;BME280;38913;44.338;11.206;2023-07-20T01:17:43;98932.47;;;21.65;nan
53023;BME280;38913;44.338;11.206;2023-07-20T02:53:10;98880.50;;;20.57;nan
53023;BME280;38913;44.338;11.206;2023-07-20T02:55:35;99004.75;;;21.24;nan
53023;BME280;38913;44.338;11.206;2023-07-20T02:58:01;98914.69;;;21.28;nan
53023;BME280;38913;44.338;11.206;2023-07-20T05:16:21;98949.66;;;24.06;nan
53023;BME280;38913;44.338;11.206;2023-07-20T05:18:47;98996.88;;;24.54;nan
53023;BME280;38913;44.338;11.206;2023-07-20T05:23:38;98953.59;;;23.87;nan
53023;BME280;38913;44.338;11.206;2023-07-20T05:28:29;99053.19;;;24.60;nan
53023;BME280;38913;44.338;11.206;2023-07-20T05:30:54;99040.22;;;24.62;nan
53023;BME280;38913;44.338;11.206;2023-07-20T05:33:20;99063.81;;;24.35;nan
53023;BME280;38913;44.338;11.206;2023-07-20T05:35:46;98977.97;;;23.82;nan
53023;BME280;38913;44.338;11.206;2023-07-20T05:38:12;99039.03;;;25.14;nan
53023;BME280;38913;44.338;11.206;2023-07-20T05:40:40;99123.00;;;25.38;nan
53023;BME280;38913;44.338;11.206;2023-07-20T05:43:06;99016.44;;;24.64;nan
53023;BME280;38913;44.338;11.206;2023-07-20T05:45:31;99160.84;;;25.41;nan
53023;BME280;38913;44.338;11.206;2023-07-20T05:47:56;99147.53;;;26.50;nan
53023;BME280;38913;44.338;11.206;2023-07-20T05:50:22;99143.59;;;25.76;nan
53023;BME280;38913;44.338;11.206;2023-07-20T05:52:47;99065.28;;;25.39;nan
53023;BME280;38913;44.338;11.206;2023-07-20T05:55:13;99133.84;;;27.49;nan
53023;BME280;38913;44.338;11.206;2023-07-20T05:57:38;99229.06;;;28.93;nan
53023;BME280;38913;44.338;11.206;2023-07-20T06:00:07;99207.16;;;28.50;nan
53023;BME280;38913;44.338;11.206;2023-07-20T06:02:33;99183.41;;;29.70;nan
53023;BME280;38913;44.338;11.206;2023-07-20T06:04:59;99139.94;;;29.27;nan
53023;BME280;38913;44.338;11.206;2023-07-20T06:07:24;99220.81;;;30.24;nan
53023;BME280;38913;44.338;11.206;2023-07-20T06:09:49;99177.13;;;30.09;nan
53023;BME280;38913;44.338;11.206;2023-07-20T06:12:15;99241.09;;;30.30;nan
53023;BME280;38913;44.338;11.206;2023-07-20T06:14:40;99247.84;;;30.63;nan
53023;BME280;38913;44.338;11.206;2023-07-20T06:17:06;99129.91;;;29.27;nan
53023;BME280;38913;44.338;11.206;2023-07-20T06:19:31;99176.78;;;29.67;nan
53023;BME280;38913;44.338;11.206;2023-07-20T06:21:56;99218.19;;;26.89;nan
53023;BME280;38913;44.338;11.206;2023-07-20T06:24:22;99272.75;;;30.92;nan
53023;BME280;38913;44.338;11.206;2023-07-20T06:26:47;99200.41;;;28.59;nan
53023;BME280;38913;44.338;11.206;2023-07-20T06:29:13;99246.13;;;30.51;nan
53023;BME280;38913;44.338;11.206;2023-07-20T06:31:38;99301.53;;;32.12;nan
53023;BME280;38913;44.338;11.206;2023-07-20T06:34:03;99321.88;;;32.63;nan
53023;BME280;38913;44.338;11.206;2023-07-20T06:36:29;99293.94;;;32.77;nan
53023;BME280;38913;44.338;11.206;2023-07-20T06:38:55;99328.28;;;33.45;nan
53023;BME280;38913;44.338;11.206;2023-07-20T06:41:21;99384.88;;;34.45;nan
53023;BME280;38913;44.338;11.206;2023-07-20T06:43:46;99372.84;;;34.86;nan
53023;BME280;38913;44.338;11.206;2023-07-20T06:46:12;99376.72;;;35.32;nan
53023;BME280;38913;44.338;11.206;2023-07-20T06:48:37;99278.94;;;33.83;nan
53023;BME280;38913;44.338;11.206;2023-07-20T06:51:03;99335.31;;;34.97;nan
53023;BME280;38913;44.338;11.206;2023-07-20T06:53:29;99334.81;;;32.32;nan
53023;BME280;38913;44.338;11.206;2023-07-20T06:55:55;99361.25;;;33.78;nan
53023;BME280;38913;44.338;11.206;2023-07-20T06:58:23;99358.94;;;37.46;nan
53023;BME280;38913;44.338;11.206;2023-07-20T07:00:49;99410.66;;;39.68;nan
53023;BME280;38913;44.338;11.206;2023-07-20T07:03:15;99341.88;;;40.18;nan
53023;BME280;38913;44.338;11.206;2023-07-20T07:05:40;99357.44;;;41.24;nan
53023;BME280;38913;44.338;11.206;2023-07-20T07:08:06;99367.66;;;42.96;nan
53023;BME280;38913;44.338;11.206;2023-07-20T07:10:32;99426.00;;;41.43;nan
53023;BME280;38913;44.338;11.206;2023-07-20T07:12:57;99421.22;;;43.82;nan
53023;BME280;38913;44.338;11.206;2023-07-20T07:15:23;99394.19;;;44.46;nan
53023;BME280;38913;44.338;11.206;2023-07-20T07:17:48;99451.78;;;45.86;nan
53023;BME280;38913;44.338;11.206;2023-07-20T07:20:14;99456.09;;;44.66;nan
53023;BME280;38913;44.338;11.206;2023-07-20T07:22:39;99412.31;;;43.88;nan
53023;BME280;38913;44.338;11.206;2023-07-20T07:25:05;99450.31;;;47.16;nan
53023;BME280;38913;44.338;11.206;2023-07-20T07:27:30;99477.47;;;48.21;nan
53023;BME280;38913;44.338;11.206;2023-07-20T07:29:56;99476.41;;;48.04;nan
53023;BME280;38913;44.338;11.206;2023-07-20T07:32:21;99462.84;;;46.05;nan
53023;BME280;38913;44.338;11.206;2023-07-20T07:34:47;99477.56;;;48.48;nan
53023;BME280;38913;44.338;11.206;2023-07-20T07:37:13;99496.13;;;45.71;nan
53023;BME280;38913;44.338;11.206;2023-07-20T07:39:39;99469.66;;;47.35;nan
53023;BME280;38913;44.338;11.206;2023-07-20T07:42:05;99469.38;;;48.08;nan
53023;BME280;38913;44.338;11.206;2023-07-20T07:44:31;99463.88;;;46.84;nan
53023;BME280;38913;44.338;11.206;2023-07-20T07:46:56;99422.41;;;48.22;nan
53023;BME280;38913;44.338;11.206;2023-07-20T07:49:22;99447.47;;;47.56;nan
53023;BME280;38913;44.338;11.206;2023-07-20T07:51:47;99419.28;;;47.99;nan
53023;BME280;38913;44.338;11.206;2023-07-20T07:54:13;99467.66;;;48.11;nan
53023;BME280;38913;44.338;11.206;2023-07-20T07:56:39;99477.06;;;51.28;nan
53023;BME280;38913;44.338;11.206;2023-07-20T07:59:04;99424.91;;;37.43;nan
53023;BME280;38913;44.338;11.206;2023-07-20T08:01:29;99485.38;;;47.48;nan
53023;BME280;38913;44.338;11.206;2023-07-20T08:03:55;99467.28;;;48.96;nan
53023;BME280;38913;44.338;11.206;2023-07-20T08:06:21;99458.25;;;52.73;nan
53023;BME280;38913;44.338;11.206;2023-07-20T08:08:46;99457.75;;;49.29;nan
53023;BME280;38913;44.338;11.206;2023-07-20T08:11:12;99451.81;;;50.50;nan
53023;BME280;38913;44.338;11.206;2023-07-20T08:13:37;99444.50;;;49.82;nan
53023;BME280;38913;44.338;11.206;2023-07-20T08:16:02;99439.53;;;52.22;nan
53023;BME280;38913;44.338;11.206;2023-07-20T08:18:28;99425.91;;;53.03;nan
53023;BME280;38913;44.338;11.206;2023-07-20T08:20:54;99450.03;;;51.13;nan
53023;BME280;38913;44.338;11.206;2023-07-20T08:23:19;99433.75;;;51.63;nan
53023;BME280;38913;44.338;11.206;2023-07-20T08:25:45;99454.91;;;51.47;nan
53023;BME280;38913;44.338;11.206;2023-07-20T08:28:13;99434.09;;;55.00;nan
53023;BME280;38913;44.338;11.206;2023-07-20T08:30:48;99426.63;;;50.06;nan
53023;BME280;38913;44.338;11.206;2023-07-20T08:33:17;99429.38;;;51.91;nan
53023;BME280;38913;44.338;11.206;2023-07-20T08:35:46;99429.09;;;53.85;nan
53023;BME280;38913;44.338;11.206;2023-07-20T08:38:12;99432.34;;;53.95;nan
53023;BME280;38913;44.338;11.206;2023-07-20T08:40:42;99431.66;;;53.83;nan
53023;BME280;38913;44.338;11.206;2023-07-20T08:43:10;99429.56;;;53.89;nan
53023;BME280;38913;44.338;11.206;2023-07-20T08:45:38;99397.22;;;52.68;nan
53023;BME280;38913;44.338;11.206;2023-07-20T08:48:06;99435.81;;;49.22;nan
53023;BME280;38913;44.338;11.206;2023-07-20T08:50:32;99399.56;;;48.03;nan
53023;BME280;38913;44.338;11.206;2023-07-20T08:52:59;99406.66;;;53.49;nan
53023;BME280;38913;44.338;11.206;2023-07-20T08:55:29;99444.47;;;50.14;nan
53023;BME280;38913;44.338;11.206;2023-07-20T08:57:56;99452.97;;;55.24;nan
53023;BME280;38913;44.338;11.206;2023-07-20T09:00:22;99404.59;;;50.98;nan
53023;BME280;38913;44.338;11.206;2023-07-20T09:02:50;99455.16;;;48.06;nan
53023;BME280;38913;44.338;11.206;2023-07-20T09:05:16;99413.44;;;41.25;nan
53023;BME280;38913;44.338;11.206;2023-07-20T09:07:41;99445.91;;;41.50;nan
53023;BME280;38913;44.338;11.206;2023-07-20T09:10:07;99427.31;;;39.17;nan
53023;BME280;38913;44.338;11.206;2023-07-20T09:12:39;99387.78;;;39.07;nan
53023;BME280;38913;44.338;11.206;2023-07-20T09:15:06;99409.31;;;39.56;nan
53023;BME280;38913;44.338;11.206;2023-07-20T09:17:31;99362.75;;;38.74;nan
53023;BME280;38913;44.338;11.206;2023-07-20T09:19:57;99412.66;;;35.67;nan
53023;BME280;38913;44.338;11.206;2023-07-20T09:22:29;99402.28;;;36.22;nan
53023;BME280;38913;44.338;11.206;2023-07-20T09:24:55;99398.69;;;37.34;nan
53023;BME280;38913;44.338;11.206;2023-07-20T09:27:20;99347.72;;;37.99;nan
53023;BME280;38913;44.338;11.206;2023-07-20T09:29:50;99362.03;;;38.93;nan
53023;BME280;38913;44.338;11.206;2023-07-20T09:32:18;99390.94;;;36.76;nan
53023;BME280;38913;44.338;11.206;2023-07-20T09:34:47;99333.09;;;37.44;nan
53023;BME280;38913;44.338;11.206;2023-07-20T09:37:20;99377.78;;;37.06;nan
53023;BME280;38913;44.338;11.206;2023-07-20T09:39:45;99388.28;;;36.69;nan
53023;BME280;38913;44.338;11.206;2023-07-20T09:42:12;99387.03;;;36.81;nan
53023;BME280;38913;44.338;11.206;2023-07-20T09:44:43;99383.22;;;35.93;nan
53023;BME280;38913;44.338;11.206;2023-07-20T09:47:09;99318.16;;;33.46;nan
53023;BME280;38913;44.338;11.206;2023-07-20T09:49:39;99328.28;;;35.07;nan
53023;BME280;38913;44.338;11.206;2023-07-20T09:52:05;99374.34;;;34.47;nan
53023;BME280;38913;44.338;11.206;2023-07-20T09:54:31;99365.00;;;34.59;nan
53023;BME280;38913;44.338;11.206;2023-07-20T09:56:57;99372.56;;;36.09;nan
53023;BME280;38913;44.338;11.206;2023-07-20T09:59:23;99386.13;;;35.13;nan
53023;BME280;38913;44.338;11.206;2023-07-20T10:01:49;99365.00;;;34.95;nan
53023;BME280;38913;44.338;11.206;2023-07-20T10:04:16;99375.94;;;34.66;nan
53023;BME280;38913;44.338;11.206;2023-07-20T10:06:46;99363.44;;;34.58;nan
53023;BME280;38913;44.338;11.206;2023-07-20T10:09:15;99278.69;;;34.58;nan
53023;BME280;38913;44.338;11.206;2023-07-20T10:11:46;99296.53;;;34.00;nan
53023;BME280;38913;44.338;11.206;2023-07-20T10:14:18;99320.28;;;33.75;nan
53023;BME280;38913;44.338;11.206;2023-07-20T10:16:50;99316.31;;;33.61;nan
53023;BME280;38913;44.338;11.206;2023-07-20T10:19:24;99359.53;;;34.66;nan
53023;BME280;38913;44.338;11.206;2023-07-20T10:21:57;99361.88;;;34.82;nan
53023;BME280;38913;44.338;11.206;2023-07-20T10:24:26;99273.59;;;34.34;nan
53023;BME280;38913;44.338;11.206;2023-07-20T10:26:54;99346.66;;;33.49;nan
53023;BME280;38913;44.338;11.206;2023-07-20T10:29:20;99344.06;;;33.07;nan
53023;BME280;38913;44.338;11.206;2023-07-20T10:31:47;99313.63;;;33.68;nan
53023;BME280;38913;44.338;11.206;2023-07-20T10:34:13;99326.75;;;34.59;nan
53023;BME280;38913;44.338;11.206;2023-07-20T10:36:45;99338.38;;;34.19;nan
53023;BME280;38913;44.338;11.206;2023-07-20T10:39:28;99347.72;;;35.53;nan
53023;BME280;38913;44.338;11.206;2023-07-20T10:42:09;99338.44;;;35.17;nan
53023;BME280;38913;44.338;11.206;2023-07-20T10:44:38;99335.31;;;34.97;nan
53023;BME280;38913;44.338;11.206;2023-07-20T10:47:12;99337.94;;;35.59;nan
53023;BME280;38913;44.338;11.206;2023-07-20T10:50:13;99335.13;;;35.77;nan
53023;BME280;38913;44.338;11.206;2023-07-20T10:52:41;99269.56;;;35.37;nan
53023;BME280;38913;44.338;11.206;2023-07-20T10:55:25;99313.41;;;33.36;nan
53023;BME280;38913;44.338;11.206;2023-07-20T10:58:06;99314.91;;;33.22;nan
53023;BME280;38913;44.338;11.206;2023-07-20T11:00:32;99256.84;;;33.22;nan
53023;BME280;38913;44.338;11.206;2023-07-20T11:02:58;99309.47;;;35.34;nan
53023;BME280;38913;44.338;11.206;2023-07-20T11:05:35;99299.38;;;34.37;nan
53023;BME280;38913;44.338;11.206;2023-07-20T11:08:11;99241.97;;;34.51;nan
53023;BME280;38913;44.338;11.206;2023-07-20T11:10:37;99301.91;;;33.64;nan
53023;BME280;38913;44.338;11.206;2023-07-20T11:13:19;99181.88;;;32.94;nan
53023;BME280;38913;44.338;11.206;2023-07-20T11:18:25;99296.22;;;34.31;nan
53023;BME280;38913;44.338;11.206;2023-07-20T11:20:51;99281.13;;;33.41;nan
53023;BME280;38913;44.338;11.206;2023-07-20T11:23:17;99291.44;;;33.81;nan
53023;BME280;38913;44.338;11.206;2023-07-20T11:25:42;99294.59;;;35.32;nan
53023;BME280;38913;44.338;11.206;2023-07-20T11:28:09;99265.69;;;33.89;nan
53023;BME280;38913;44.338;11.206;2023-07-20T11:30:37;99287.63;;;34.33;nan
53023;BME280;38913;44.338;11.206;2023-07-20T11:33:03;99279.84;;;34.46;nan
53023;BME280;38913;44.338;11.206;2023-07-20T11:35:28;99218.16;;;34.19;nan
53023;BME280;38913;44.338;11.206;2023-07-20T11:37:54;99206.75;;;33.66;nan
53023;BME280;38913;44.338;11.206;2023-07-20T11:40:22;99263.41;;;34.93;nan
53023;BME280;38913;44.338;11.206;2023-07-20T11:42:47;99211.13;;;34.44;nan
53023;BME280;38913;44.338;11.206;2023-07-20T11:45:16;99258.44;;;33.30;nan
53023;BME280;38913;44.338;11.206;2023-07-20T11:47:41;99263.41;;;34.09;nan
53023;BME280;38913;44.338;11.206;2023-07-20T11:50:07;99252.53;;;34.49;nan
53023;BME280;38913;44.338;11.206;2023-07-20T11:52:33;99190.41;;;34.68;nan
53023;BME280;38913;44.338;11.206;2023-07-20T11:55:00;99247.06;;;34.53;nan
53023;BME280;38913;44.338;11.206;2023-07-20T11:57:26;99250.19;;;34.59;nan
53023;BME280;38913;44.338;11.206;2023-07-20T12:00:01;99248.59;;;34.79;nan
53023;BME280;38913;44.338;11.206;2023-07-20T12:02:29;99191.22;;;34.50;nan
53023;BME280;38913;44.338;11.206;2023-07-20T12:04:56;99239.22;;;34.84;nan
53023;BME280;38913;44.338;11.206;2023-07-20T12:07:22;99233.00;;;34.73;nan
53023;BME280;38913;44.338;11.206;2023-07-20T12:10:06;99230.97;;;33.90;nan
53023;BME280;38913;44.338;11.206;2023-07-20T12:12:43;99221.56;;;32.84;nan
53023;BME280;38913;44.338;11.206;2023-07-20T12:15:25;99231.31;;;33.77;nan
53023;BME280;38913;44.338;11.206;2023-07-20T12:18:02;99224.38;;;34.52;nan
53023;BME280;38913;44.338;11.206;2023-07-20T12:20:32;99230.63;;;34.35;nan
53023;BME280;38913;44.338;11.206;2023-07-20T12:23:04;99227.44;;;33.71;nan
53023;BME280;38913;44.338;11.206;2023-07-20T12:25:40;99210.72;;;34.52;nan
53023;BME280;38913;44.338;11.206;2023-07-20T12:28:11;99319.28;;;34.96;nan
53023;BME280;38913;44.338;11.206;2023-07-20T12:30:38;99179.25;;;33.12;nan
53023;BME280;38913;44.338;11.206;2023-07-20T12:33:04;99211.25;;;32.55;nan
53023;BME280;38913;44.338;11.206;2023-07-20T12:35:30;99207.91;;;33.72;nan
53023;BME280;38913;44.338;11.206;2023-07-20T12:37:56;99129.91;;;33.53;nan
53023;BME280;38913;44.338;11.206;2023-07-20T12:40:22;99190.00;;;33.82;nan
53023;BME280;38913;44.338;11.206;2023-07-20T12:42:48;99207.50;;;35.08;nan
53023;BME280;38913;44.338;11.206;2023-07-20T12:45:14;99204.78;;;33.59;nan
53023;BME280;38913;44.338;11.206;2023-07-20T12:47:40;99206.34;;;33.57;nan
53023;BME280;38913;44.338;11.206;2023-07-20T12:50:06;99191.59;;;34.56;nan
53023;BME280;38913;44.338;11.206;2023-07-20T12:52:36;99203.09;;;35.37;nan
53023;BME280;38913;44.338;11.206;2023-07-20T12:55:04;99188.44;;;34.83;nan
53023;BME280;38913;44.338;11.206;2023-07-20T12:57:30;99165.84;;;33.92;nan
53023;BME280;38913;44.338;11.206;2023-07-20T12:59:56;99170.41;;;33.48;nan
53023;BME280;38913;44.338;11.206;2023-07-20T13:02:21;99193.16;;;34.39;nan
53023;BME280;38913;44.338;11.206;2023-07-20T13:04:46;99069.84;;;34.26;nan
53023;BME280;38913;44.338;11.206;2023-07-20T13:07:12;99192.31;;;34.93;nan
53023;BME280;38913;44.338;11.206;2023-07-20T13:09:37;99193.91;;;33.92;nan
53023;BME280;38913;44.338;11.206;2023-07-20T13:12:03;99109.63;;;33.51;nan
53023;BME280;38913;44.338;11.206;2023-07-20T13:14:28;99205.63;;;34.69;nan
53023;BME280;38913;44.338;11.206;2023-07-20T13:16:55;99190.69;;;35.17;nan
53023;BME280;38913;44.338;11.206;2023-07-20T13:19:20;99204.91;;;34.58;nan
53023;BME280;38913;44.338;11.206;2023-07-20T13:21:46;99172.06;;;33.99;nan
53023;BME280;38913;44.338;11.206;2023-07-20T13:24:12;99170.94;;;34.11;nan
53023;BME280;38913;44.338;11.206;2023-07-20T13:26:37;99184.94;;;34.68;nan
53023;BME280;38913;44.338;11.206;2023-07-20T13:29:02;99182.88;;;33.45;nan
53023;BME280;38913;44.338;11.206;2023-07-20T13:31:28;99101.06;;;33.52;nan
53023;BME280;38913;44.338;11.206;2023-07-20T13:33:53;99122.94;;;34.29;nan
53023;BME280;38913;44.338;11.206;2023-07-20T13:36:20;99191.50;;;35.03;nan
53023;BME280;38913;44.338;11.206;2023-07-20T13:38:46;99190.03;;;34.70;nan
53023;BME280;38913;44.338;11.206;2023-07-20T13:41:12;99190.78;;;33.79;nan
53023;BME280;38913;44.338;11.206;2023-07-20T13:43:37;99168.22;;;34.15;nan
53023;BME280;38913;44.338;11.206;2023-07-20T13:46:02;98991.81;;;33.12;nan
53023;BME280;38913;44.338;11.206;2023-07-20T13:48:28;99108.09;;;34.30;nan
53023;BME280;38913;44.338;11.206;2023-07-20T13:50:53;99142.00;;;34.54;nan
53023;BME280;38913;44.338;11.206;2023-07-20T13:53:19;99161.94;;;33.85;nan
53023;BME280;38913;44.338;11.206;2023-07-20T13:55:44;99138.28;;;32.97;nan
53023;BME280;38913;44.338;11.206;2023-07-20T13:58:10;99154.88;;;33.70;nan
53023;BME280;38913;44.338;11.206;2023-07-20T14:00:35;99158.69;;;33.36;nan
53023;BME280;38913;44.338;11.206;2023-07-20T14:03:01;99140.72;;;33.24;nan
53023;BME280;38913;44.338;11.206;2023-07-20T14:05:26;99147.09;;;33.65;nan
53023;BME280;38913;44.338;11.206;2023-07-20T14:07:53;99130.66;;;33.46;nan
53023;BME280;38913;44.338;11.206;2023-07-20T14:10:18;99130.59;;;33.28;nan
53023;BME280;38913;44.338;11.206;2023-07-20T14:12:44;99135.22;;;33.10;nan
53023;BME280;38913;44.338;11.206;2023-07-20T14:15:10;99102.44;;;32.99;nan
53023;BME280;38913;44.338;11.206;2023-07-20T14:17:36;99104.09;;;33.29;nan
53023;BME280;38913;44.338;11.206;2023-07-20T14:20:01;99109.44;;;32.92;nan
53023;BME280;38913;44.338;11.206;2023-07-20T14:22:30;99057.78;;;32.44;nan
53023;BME280;38913;44.338;11.206;2023-07-20T14:24:56;99096.75;;;32.48;nan
53023;BME280;38913;44.338;11.206;2023-07-20T14:27:21;99117.94;;;32.80;nan
53023;BME280;38913;44.338;11.206;2023-07-20T14:29:46;99110.00;;;32.49;nan
53023;BME280;38913;44.338;11.206;2023-07-20T14:32:12;99124.13;;;32.77;nan
53023;BME280;38913;44.338;11.206;2023-07-20T14:34:37;99068.41;;;32.67;nan
53023;BME280;38913;44.338;11.206;2023-07-20T14:37:03;99100.41;;;32.81;nan
53023;BME280;38913;44.338;11.206;2023-07-20T14:39:29;99062.31;;;32.99;nan
53023;BME280;38913;44.338;11.206;2023-07-20T14:41:55;99024.91;;;32.15;nan
53023;BME280;38913;44.338;11.206;2023-07-20T14:44:21;99130.38;;;32.77;nan
53023;BME280;38913;44.338;11.206;2023-07-20T14:46:46;99092.94;;;32.67;nan
53023;BME280;38913;44.338;11.206;2023-07-20T14:49:11;99022.03;;;32.56;nan
53023;BME280;38913;44.338;11.206;2023-07-20T14:51:37;99043.91;;;32.74;nan
53023;BME280;38913;44.338;11.206;2023-07-20T14:54:09;99079.78;;;32.80;nan
53023;BME280;38913;44.338;11.206;2023-07-20T14:56:34;99013.16;;;32.03;nan
53023;BME280;38913;44.338;11.206;2023-07-20T14:59:00;99093.81;;;32.86;nan
53023;BME280;38913;44.338;11.206;2023-07-20T15:01:25;99072.50;;;33.13;nan
53023;BME280;38913;44.338;11.206;2023-07-20T15:03:51;99088.06;;;33.13;nan
53023;BME280;38913;44.338;11.206;2023-07-20T15:06:18;99101.72;;;33.09;nan
53023;BME280;38913;44.338;11.206;2023-07-20T15:08:44;99009.06;;;32.31;nan
53023;BME280;38913;44.338;11.206;2023-07-20T15:11:09;98997.41;;;32.34;nan
53023;BME280;38913;44.338;11.206;2023-07-20T15:13:35;99086.78;;;32.81;nan
53023;BME280;38913;44.338;11.206;2023-07-20T15:16:00;99063.59;;;32.38;nan
53023;BME280;38913;44.338;11.206;2023-07-20T15:18:25;99094.88;;;32.63;nan
53023;BME280;38913;44.338;11.206;2023-07-20T15:20:51;98970.41;;;32.04;nan
53023;BME280;38913;44.338;11.206;2023-07-20T15:23:19;99074.28;;;32.73;nan
53023;BME280;38913;44.338;11.206;2023-07-20T15:25:45;99056.41;;;32.79;nan
53023;BME280;38913;44.338;11.206;2023-07-20T15:28:10;98990.66;;;32.10;nan
53023;BME280;38913;44.338;11.206;2023-07-20T15:30:36;99092.13;;;32.59;nan
53023;BME280;38913;44.338;11.206;2023-07-20T15:33:01;99093.81;;;32.89;nan
53023;BME280;38913;44.338;11.206;2023-07-20T15:35:27;99086.03;;;32.91;nan
53023;BME280;38913;44.338;11.206;2023-07-20T15:37:52;99075.91;;;32.92;nan
53023;BME280;38913;44.338;11.206;2023-07-20T15:40:18;99077.94;;;33.02;nan
53023;BME280;38913;44.338;11.206;2023-07-20T15:42:43;99050.84;;;32.61;nan
53023;BME280;38913;44.338;11.206;2023-07-20T15:45:09;99051.72;;;32.83;nan
53023;BME280;38913;44.338;11.206;2023-07-20T15:47:35;99061.06;;;32.75;nan
53023;BME280;38913;44.338;11.206;2023-07-20T15:50:01;99062.63;;;32.83;nan
53023;BME280;38913;44.338;11.206;2023-07-20T15:52:27;98970.47;;;32.22;nan
53023;BME280;38913;44.338;11.206;2023-07-20T15:54:52;98986.94;;;32.40;nan
53023;BME280;38913;44.338;11.206;2023-07-20T15:57:18;99026.75;;;32.63;nan
53023;BME280;38913;44.338;11.206;2023-07-20T15:59:43;99043.63;;;32.98;nan
53023;BME280;38913;44.338;11.206;2023-07-20T16:02:09;99043.16;;;32.77;nan
53023;BME280;38913;44.338;11.206;2023-07-20T16:04:34;99022.81;;;32.57;nan
53023;BME280;38913;44.338;11.206;2023-07-20T16:07:00;98935.22;;;31.80;nan
53023;BME280;38913;44.338;11.206;2023-07-20T16:09:25;98965.03;;;32.22;nan
53023;BME280;38913;44.338;11.206;2023-07-20T16:11:52;98979.81;;;32.21;nan
53023;BME280;38913;44.338;11.206;2023-07-20T16:14:17;99043.72;;;32.38;nan
53023;BME280;38913;44.338;11.206;2023-07-20T16:16:43;99030.44;;;32.29;nan
53023;BME280;38913;44.338;11.206;2023-07-20T16:19:08;99032.88;;;32.42;nan
53023;BME280;38913;44.338;11.206;2023-07-20T16:21:34;99004.00;;;32.30;nan
53023;BME280;38913;44.338;11.206;2023-07-20T16:23:59;99030.09;;;32.34;nan
53023;BME280;38913;44.338;11.206;2023-07-20T16:26:25;99020.34;;;32.33;nan
53023;BME280;38913;44.338;11.206;2023-07-20T16:28:51;99014.84;;;32.22;nan
53023;BME280;38913;44.338;11.206;2023-07-20T16:31:17;99026.56;;;32.30;nan
53023;BME280;38913;44.338;11.206;2023-07-20T16:33:43;99019.84;;;32.17;nan
53023;BME280;38913;44.338;11.206;2023-07-20T16:36:14;99012.91;;;32.23;nan
53023;BME280;38913;44.338;11.206;2023-07-20T16:38:39;98999.25;;;32.19;nan
53023;BME280;38913;44.338;11.206;2023-07-20T16:41:07;99012.53;;;32.28;nan
53023;BME280;38913;44.338;11.206;2023-07-20T16:43:36;98989.88;;;32.09;nan
53023;BME280;38913;44.338;11.206;2023-07-20T16:46:03;98979.56;;;31.77;nan
53023;BME280;38913;44.338;11.206;2023-07-20T16:48:29;99029.63;;;32.18;nan
53023;BME280;38913;44.338;11.206;2023-07-20T16:50:57;99021.78;;;32.09;nan
53023;BME280;38913;44.338;11.206;2023-07-20T16:53:24;98907.88;;;31.59;nan
53023;BME280;38913;44.338;11.206;2023-07-20T16:55:51;99021.50;;;32.29;nan
53023;BME280;38913;44.338;11.206;2023-07-20T16:58:18;99026.91;;;32.18;nan
53023;BME280;38913;44.338;11.206;2023-07-20T17:00:46;98990.66;;;32.10;nan
53023;BME280;38913;44.338;11.206;2023-07-20T17:03:13;98985.13;;;31.95;nan
53023;BME280;38913;44.338;11.206;2023-07-20T17:05:38;99016.28;;;32.02;nan
53023;BME280;38913;44.338;11.206;2023-07-20T17:08:03;99010.81;;;31.98;nan
53023;BME280;38913;44.338;11.206;2023-07-20T17:10:29;99001.44;;;31.88;nan
53023;BME280;38913;44.338;11.206;2023-07-20T17:12:55;99006.91;;;31.92;nan